Time;durP1;ratioP1;P1;durP2;ratioP2;P2;SDS_P1;SDS_P2;PMS_P1;PMS_P2;Temp;Humidity;BMP_temperature;BMP_pressure;BME280_temperature;BME280_humidity;BME280_pressure;Samples;Min_cycle;Max_cycle;Signal;HPM_P1;HPM_P2
2021/01/21 00:04:47;;;;;;;5.00;4.47;;;7.90;82.00;;;;;;10247591;28;20244;-84
2021/01/21 00:09:51;;;;;;;4.10;3.70;;;7.90;82.20;;;;;;10245455;28;20318;-85
2021/01/21 00:14:54;;;;;;;3.93;3.53;;;7.90;81.50;;;;;;10262789;28;20573;-82
2021/01/21 00:19:56;;;;;;;4.10;3.80;;;7.90;81.80;;;;;;10253306;28;20248;-82
2021/01/21 00:24:57;;;;;;;4.80;4.30;;;7.90;81.10;;;;;;10297720;28;20219;-84
2021/01/21 00:30:00;;;;;;;3.90;3.60;;;7.90;84.40;;;;;;10265417;28;20251;-84
2021/01/21 00:35:01;;;;;;;4.27;3.87;;;7.90;82.90;;;;;;10281896;28;20669;-84
2021/01/21 00:40:04;;;;;;;4.03;3.53;;;7.80;84.10;;;;;;10299605;28;20708;-84
2021/01/21 00:45:08;;;;;;;4.30;3.90;;;7.80;85.30;;;;;;10297300;28;20696;-84
2021/01/21 00:50:11;;;;;;;4.50;3.73;;;7.70;86.10;;;;;;10269196;28;20255;-84
2021/01/21 00:55:13;;;;;;;4.30;3.90;;;7.60;85.70;;;;;;10267655;28;20207;-84
2021/01/21 01:00:19;;;;;;;4.20;3.83;;;7.50;86.40;;;;;;10268443;28;20228;-84
2021/01/21 01:05:24;;;;;;;7.67;4.30;;;7.40;86.00;;;;;;10274329;28;20231;-84
2021/01/21 01:10:26;;;;;;;5.90;4.00;;;7.40;87.50;;;;;;10294901;28;20290;-83
2021/01/21 01:15:31;;;;;;;4.40;4.00;;;7.30;88.80;;;;;;10258398;28;20579;-82
2021/01/21 01:20:33;;;;;;;3.73;3.40;;;7.30;88.90;;;;;;10275534;28;20647;-82
2021/01/21 01:25:35;;;;;;;2.57;2.40;;;7.20;89.60;;;;;;10259151;28;20246;-82
2021/01/21 01:30:37;;;;;;;3.33;2.90;;;7.10;89.70;;;;;;10278444;28;20224;-83
2021/01/21 01:35:39;;;;;;;3.03;2.63;;;7.00;87.60;;;;;;10275677;28;20211;-84
2021/01/21 01:40:41;;;;;;;3.37;2.80;;;7.10;84.70;;;;;;10278867;28;20255;-85
2021/01/21 01:45:47;;;;;;;3.40;3.10;;;7.20;84.40;;;;;;10292062;28;20223;-83
2021/01/21 01:50:49;;;;;;;4.07;2.77;;;7.40;84.80;;;;;;10294371;28;20714;-84
2021/01/21 01:55:56;;;;;;;3.20;2.80;;;7.40;83.00;;;;;;10305657;28;20200;-81
2021/01/21 02:01:07;;;;;;;2.50;2.30;;;7.60;82.70;;;;;;10295007;28;20235;-83
2021/01/21 02:06:10;;;;;;;2.10;2.00;;;7.60;83.30;;;;;;10283369;28;20204;-83
2021/01/21 03:21:23;;;;;;;1.80;1.70;;;7.20;86.90;;;;;;10274780;28;20217;-83
2021/01/21 03:26:29;;;;;;;1.73;1.63;;;7.50;83.10;;;;;;10290839;28;20200;-82
2021/01/21 03:31:40;;;;;;;1.50;1.30;;;7.80;79.60;;;;;;10278634;28;20223;-82
2021/01/21 03:36:44;;;;;;;1.77;1.67;;;8.10;75.70;;;;;;10294398;28;20247;-82
2021/01/21 03:41:46;;;;;;;1.63;1.53;;;8.40;76.20;;;;;;10277635;28;20216;-83
2021/01/21 03:46:59;;;;;;;2.70;1.40;;;8.70;73.00;;;;;;10266670;28;20431;-82
2021/01/21 03:52:20;;;;;;;2.83;1.70;;;8.80;73.90;;;;;;10297665;28;20223;-82
2021/01/21 03:57:34;;;;;;;2.27;1.70;;;9.00;71.40;;;;;;10266602;28;20204;-83
2021/01/21 04:02:59;;;;;;;1.67;1.57;;;9.10;70.30;;;;;;10281563;28;20267;-84
2021/01/21 04:08:11;;;;;;;1.60;1.50;;;9.20;71.30;;;;;;10283222;28;20238;-85
2021/01/21 04:13:23;;;;;;;1.70;1.60;;;9.20;70.10;;;;;;10265683;28;20229;-82
2021/01/21 04:18:26;;;;;;;1.83;1.73;;;9.30;69.60;;;;;;10294765;28;20657;-86
2021/01/21 04:23:37;;;;;;;1.60;1.50;;;9.30;69.10;;;;;;10310304;28;20239;-82
2021/01/21 04:28:47;;;;;;;1.53;1.40;;;9.30;69.10;;;;;;10277281;28;20215;-83
2021/01/21 04:33:49;;;;;;;1.80;1.70;;;9.20;69.40;;;;;;10292587;28;20708;-82
2021/01/21 04:38:58;;;;;;;1.30;1.20;;;9.30;68.70;;;;;;10278001;28;20298;-83
2021/01/21 04:44:01;;;;;;;2.90;1.40;;;9.30;68.40;;;;;;10262013;28;20216;-82
2021/01/21 04:49:19;;;;;;;1.30;1.20;;;9.30;68.90;;;;;;10261519;28;20228;-84
2021/01/21 04:54:33;;;;;;;1.40;1.30;;;9.20;69.00;;;;;;10279412;28;20200;-83
2021/01/21 04:59:41;;;;;;;1.30;1.20;;;9.30;68.50;;;;;;10273794;28;20685;-83
2021/01/21 05:04:50;;;;;;;1.00;1.00;;;9.30;68.50;;;;;;10261972;28;20235;-82
2021/01/21 05:10:20;;;;;;;1.43;1.33;;;9.40;67.60;;;;;;10273927;28;20310;-84
2021/01/21 05:15:22;;;;;;;1.30;1.20;;;9.40;67.90;;;;;;10246022;28;20234;-83
2021/01/21 05:20:42;;;;;;;3.93;1.03;;;9.50;66.20;;;;;;10277553;28;20660;-84
2021/01/21 05:26:04;;;;;;;1.30;1.30;;;9.70;65.90;;;;;;10277979;28;20227;-82
2021/01/21 05:31:38;;;;;;;2.80;1.20;;;9.70;66.20;;;;;;10281367;28;20220;-82
2021/01/21 05:36:44;;;;;;;1.60;1.50;;;9.70;64.80;;;;;;10259024;28;20220;-85
2021/01/21 05:41:53;;;;;;;1.50;1.40;;;9.70;65.80;;;;;;10252392;28;20233;-84
2021/01/21 05:47:31;;;;;;;1.03;1.03;;;9.80;65.10;;;;;;10274388;28;20223;-84
2021/01/21 05:52:33;;;;;;;1.20;1.20;;;9.90;65.40;;;;;;10263304;28;20646;-84
2021/01/21 05:57:36;;;;;;;2.37;1.30;;;9.90;64.70;;;;;;10295159;28;20200;-84
2021/01/21 06:02:40;;;;;;;1.80;1.30;;;9.90;63.80;;;;;;10270344;28;20232;-84
2021/01/21 06:07:55;;;;;;;1.47;1.37;;;10.10;62.00;;;;;;10278579;28;20211;-85
2021/01/21 06:12:57;;;;;;;3.43;1.27;;;10.20;61.40;;;;;;10267968;28;20239;-82
2021/01/21 06:17:59;;;;;;;1.30;1.20;;;10.30;61.20;;;;;;10291299;28;20282;-83
2021/01/21 06:23:30;;;;;;;2.03;1.10;;;10.40;59.80;;;;;;10273717;28;20648;-84
2021/01/21 06:28:54;;;;;;;0.80;0.80;;;10.40;60.70;;;;;;10278699;28;20200;-83
2021/01/21 06:33:58;;;;;;;3.47;1.43;;;10.40;59.40;;;;;;10261251;28;20196;-82
2021/01/21 06:39:01;;;;;;;1.23;1.07;;;10.50;58.90;;;;;;10262288;28;20196;-83
2021/01/21 06:44:04;;;;;;;1.70;1.30;;;10.50;59.60;;;;;;10242045;28;20315;-83
2021/01/21 06:49:06;;;;;;;6.27;1.63;;;10.50;59.20;;;;;;10243849;28;20228;-83
2021/01/21 06:54:09;;;;;;;2.47;1.40;;;10.50;59.40;;;;;;10247964;28;20653;-84
2021/01/21 06:59:12;;;;;;;2.10;1.30;;;10.60;60.30;;;;;;10265544;28;20311;-83
2021/01/21 07:04:26;;;;;;;3.00;1.37;;;10.60;61.60;;;;;;10260473;28;20252;-84
2021/01/21 07:09:28;;;;;;;1.33;1.23;;;10.50;63.90;;;;;;10239200;28;20235;-84
2021/01/21 07:14:32;;;;;;;1.80;1.17;;;10.50;64.60;;;;;;10268817;28;20284;-83
2021/01/21 07:19:35;;;;;;;1.60;1.50;;;10.50;67.10;;;;;;10277439;28;20700;-82
2021/01/21 07:24:48;;;;;;;1.40;1.30;;;10.50;69.40;;;;;;10255336;28;20227;-82
2021/01/21 07:30:11;;;;;;;3.00;1.67;;;10.40;71.60;;;;;;10230490;28;20785;-84
2021/01/21 07:35:38;;;;;;;1.30;1.20;;;10.40;73.50;;;;;;10263954;28;20204;-82
2021/01/21 07:40:45;;;;;;;1.13;1.13;;;10.50;74.20;;;;;;10216188;28;20227;-83
2021/01/21 07:45:48;;;;;;;1.87;1.50;;;10.50;75.30;;;;;;10245228;28;20270;-85
2021/01/21 07:50:50;;;;;;;1.33;1.23;;;10.40;76.00;;;;;;10267912;28;20259;-83
2021/01/21 07:55:53;;;;;;;1.27;1.17;;;10.40;76.70;;;;;;10240809;28;20201;-85
2021/01/21 08:00:57;;;;;;;1.50;1.20;;;10.50;77.40;;;;;;10276216;28;20283;-82
2021/01/21 08:06:07;;;;;;;1.30;1.27;;;10.60;76.80;;;;;;10252028;28;20224;-82
2021/01/21 08:11:11;;;;;;;1.33;1.23;;;10.60;76.80;;;;;;10280360;28;20235;-83
2021/01/21 08:16:14;;;;;;;1.80;1.70;;;10.70;76.60;;;;;;10296491;28;20286;-84
2021/01/21 08:21:25;;;;;;;1.40;1.30;;;10.70;77.00;;;;;;10294717;28;20721;-86
2021/01/21 08:26:28;;;;;;;2.00;1.87;;;10.80;77.20;;;;;;10285467;28;20322;-84
2021/01/21 08:31:38;;;;;;;1.30;1.23;;;10.80;77.90;;;;;;10303887;28;20224;-86
2021/01/21 08:36:40;;;;;;;1.37;1.20;;;10.90;78.00;;;;;;10297157;28;20211;-84
2021/01/21 08:41:44;;;;;;;1.37;1.27;;;11.00;78.80;;;;;;10288944;28;20380;-84
2021/01/21 08:46:57;;;;;;;1.23;1.07;;;10.90;78.80;;;;;;10253762;28;20290;-84
2021/01/21 08:52:09;;;;;;;1.50;1.40;;;10.90;79.30;;;;;;10261847;28;20248;-84
2021/01/21 08:57:11;;;;;;;1.13;1.03;;;10.90;80.60;;;;;;10271383;28;20842;-84
2021/01/21 09:02:14;;;;;;;1.37;1.27;;;10.90;80.00;;;;;;10285958;28;20220;-86
2021/01/21 09:07:24;;;;;;;1.07;1.07;;;10.80;79.80;;;;;;10274772;28;20233;-84
2021/01/21 09:12:26;;;;;;;1.20;1.10;;;10.90;79.60;;;;;;10229654;28;20232;-85
2021/01/21 09:17:29;;;;;;;1.03;1.03;;;11.00;80.10;;;;;;10245667;28;20252;-85
2021/01/21 09:22:38;;;;;;;2.30;1.27;;;11.00;80.30;;;;;;10248917;28;20228;-86
2021/01/21 09:27:51;;;;;;;1.53;1.43;;;11.20;80.20;;;;;;10252515;28;20224;-84
2021/01/21 09:32:53;;;;;;;1.30;1.20;;;11.40;79.60;;;;;;10236459;28;20275;-85
2021/01/21 09:37:57;;;;;;;1.40;1.30;;;11.60;79.80;;;;;;10238536;28;20573;-84
2021/01/21 09:43:00;;;;;;;1.33;1.20;;;11.60;79.60;;;;;;10241944;28;20796;-86
2021/01/21 09:48:03;;;;;;;0.93;0.90;;;11.60;79.70;;;;;;10229119;28;20228;-84
2021/01/21 09:53:05;;;;;;;1.23;1.20;;;11.40;80.50;;;;;;10224048;28;20332;-83
2021/01/21 09:58:07;;;;;;;1.00;1.00;;;11.40;81.10;;;;;;10235223;28;20295;-84
2021/01/21 10:03:10;;;;;;;1.00;1.00;;;11.30;81.20;;;;;;10232504;28;20244;-84
2021/01/21 10:08:12;;;;;;;1.00;1.00;;;11.30;82.60;;;;;;10210217;28;20672;-85
2021/01/21 10:13:13;;;;;;;1.87;1.30;;;11.20;82.20;;;;;;10291467;28;20231;-85
2021/01/21 10:18:16;;;;;;;1.40;1.30;;;11.20;82.40;;;;;;10274956;28;20204;-85
2021/01/21 10:23:17;;;;;;;1.40;1.30;;;11.30;82.50;;;;;;10271221;28;20231;-84
2021/01/21 10:28:19;;;;;;;1.33;1.23;;;11.30;82.80;;;;;;10279233;28;20211;-84
2021/01/21 10:33:22;;;;;;;2.20;1.27;;;11.30;83.10;;;;;;10267894;28;20316;-84
2021/01/21 10:38:23;;;;;;;1.10;1.00;;;11.40;83.40;;;;;;10252134;28;20213;-82
2021/01/21 10:43:25;;;;;;;0.90;0.90;;;11.70;83.60;;;;;;10251205;28;20239;-84
2021/01/21 10:48:28;;;;;;;0.80;0.80;;;11.70;83.60;;;;;;10288641;28;20201;-83
2021/01/21 10:53:30;;;;;;;1.60;1.27;;;11.70;83.30;;;;;;10285588;28;20221;-84
2021/01/21 10:58:32;;;;;;;0.93;0.83;;;11.80;83.00;;;;;;10279175;28;20211;-82
2021/01/21 11:03:34;;;;;;;1.20;1.20;;;11.90;86.00;;;;;;10274757;28;20749;-83
2021/01/21 11:08:36;;;;;;;1.27;1.20;;;11.90;86.40;;;;;;10282349;28;20315;-82
2021/01/21 11:13:37;;;;;;;1.50;1.40;;;11.80;87.30;;;;;;10276813;28;20318;-84
2021/01/21 11:18:40;;;;;;;1.30;1.20;;;11.80;86.80;;;;;;10281715;28;20719;-84
2021/01/21 11:23:42;;;;;;;1.47;1.30;;;12.00;86.80;;;;;;10288010;28;20243;-83
2021/01/21 11:28:43;;;;;;;1.67;1.40;;;12.10;86.00;;;;;;10262501;28;20212;-85
2021/01/21 11:33:46;;;;;;;1.20;1.17;;;12.00;85.80;;;;;;10251071;28;20220;-83
2021/01/21 11:38:47;;;;;;;1.30;1.20;;;11.90;85.40;;;;;;10271851;28;20211;-85
2021/01/21 11:43:49;;;;;;;1.27;1.00;;;11.90;84.60;;;;;;10273473;28;20299;-84
2021/01/21 11:48:54;;;;;;;1.30;1.20;;;12.00;85.00;;;;;;10254508;28;20212;-82
2021/01/21 11:53:56;;;;;;;1.10;1.00;;;12.00;84.80;;;;;;10269826;28;20215;-84
2021/01/21 11:58:57;;;;;;;2.60;1.60;;;12.20;83.50;;;;;;10252260;28;20230;-83
2021/01/21 12:04:00;;;;;;;1.27;1.17;;;12.30;83.60;;;;;;10284432;28;20314;-83
2021/01/21 12:09:03;;;;;;;1.73;1.63;;;12.40;83.60;;;;;;10259795;28;20224;-83
2021/01/21 12:14:04;;;;;;;1.40;1.30;;;12.40;83.90;;;;;;10261518;28;20664;-84
2021/01/21 12:19:07;;;;;;;1.10;1.00;;;12.40;84.40;;;;;;10256384;28;20201;-84
2021/01/21 12:24:09;;;;;;;7.50;1.73;;;12.50;82.80;;;;;;10238528;28;20260;-85
2021/01/21 12:29:11;;;;;;;1.70;1.30;;;12.60;82.30;;;;;;10273728;28;20239;-83
2021/01/21 12:34:13;;;;;;;11.03;1.67;;;12.70;82.20;;;;;;10300205;28;21093;-82
2021/01/21 12:39:15;;;;;;;1.30;1.20;;;12.80;81.60;;;;;;10297583;28;20310;-85
2021/01/21 12:44:17;;;;;;;1.53;1.43;;;12.90;82.40;;;;;;10281761;28;20220;-84
2021/01/21 12:49:20;;;;;;;1.37;1.30;;;12.90;81.90;;;;;;10307894;28;20223;-82
2021/01/21 12:54:21;;;;;;;1.50;1.40;;;12.90;84.80;;;;;;10262699;28;20728;-83
2021/01/21 12:59:23;;;;;;;1.83;1.43;;;12.70;85.40;;;;;;10295026;28;20735;-82
2021/01/21 13:04:26;;;;;;;1.73;1.63;;;12.50;88.40;;;;;;10276675;28;20244;-82
2021/01/21 13:09:27;;;;;;;1.60;1.50;;;12.20;88.80;;;;;;10251105;28;20236;-85
2021/01/21 13:14:29;;;;;;;1.30;1.20;;;12.10;88.80;;;;;;10256754;28;20220;-85
2021/01/21 13:19:34;;;;;;;1.60;1.50;;;12.00;87.90;;;;;;10238845;28;20228;-83
2021/01/21 13:24:38;;;;;;;1.60;1.50;;;12.10;88.40;;;;;;10241091;28;20733;-86
2021/01/21 13:29:40;;;;;;;1.50;1.40;;;12.20;87.20;;;;;;10241264;28;20220;-86
2021/01/21 13:34:42;;;;;;;1.47;1.37;;;12.30;87.10;;;;;;10242098;28;20212;-86
2021/01/21 13:39:44;;;;;;;1.60;1.50;;;12.30;88.10;;;;;;10295753;28;20232;-86
2021/01/21 13:44:46;;;;;;;1.30;1.20;;;12.40;86.60;;;;;;10270468;28;20703;-85
2021/01/21 13:49:48;;;;;;;1.47;1.37;;;12.30;87.80;;;;;;10266534;28;20232;-84
2021/01/21 13:54:50;;;;;;;1.10;1.10;;;12.40;87.30;;;;;;10287413;28;20351;-84
2021/01/21 13:59:52;;;;;;;1.10;1.10;;;12.50;87.20;;;;;;10259200;28;20235;-84
2021/01/21 14:04:54;;;;;;;2.07;1.87;;;12.50;88.10;;;;;;10277035;28;20231;-82
2021/01/21 14:09:56;;;;;;;3.03;1.37;;;12.50;89.10;;;;;;10256241;28;20224;-85
2021/01/21 14:14:58;;;;;;;2.03;1.93;;;12.50;88.30;;;;;;10255767;28;20581;-83
2021/01/21 14:20:00;;;;;;;1.77;1.50;;;12.50;89.20;;;;;;10263516;28;20219;-82
2021/01/21 14:25:03;;;;;;;1.23;1.23;;;12.50;89.90;;;;;;10273284;28;20331;-84
2021/01/21 14:30:06;;;;;;;1.60;1.50;;;12.40;89.40;;;;;;10258081;28;20266;-86
2021/01/21 14:35:10;;;;;;;1.60;1.50;;;12.30;90.10;;;;;;10268678;28;20260;-84
2021/01/21 14:40:14;;;;;;;1.43;1.33;;;12.40;90.20;;;;;;10253376;28;20223;-83
2021/01/21 14:45:18;;;;;;;5.93;1.77;;;12.30;90.40;;;;;;10259087;28;20247;-84
2021/01/21 14:50:21;;;;;;;1.53;1.43;;;12.20;90.60;;;;;;10281027;28;20291;-82
2021/01/21 14:55:26;;;;;;;2.50;1.20;;;12.20;90.90;;;;;;10275226;28;20204;-84
2021/01/21 15:00:28;;;;;;;1.43;1.33;;;12.20;90.80;;;;;;10269817;28;20224;-86
2021/01/21 15:05:30;;;;;;;1.20;1.20;;;12.10;91.00;;;;;;10275791;28;20262;-84
2021/01/21 15:10:32;;;;;;;1.40;1.30;;;12.00;91.00;;;;;;10292963;28;20650;-85
2021/01/21 15:15:33;;;;;;;1.67;1.57;;;12.10;90.90;;;;;;10263214;28;20212;-86
2021/01/21 15:20:36;;;;;;;1.53;1.43;;;12.10;91.10;;;;;;10279943;28;20223;-84
2021/01/21 15:25:41;;;;;;;1.63;1.30;;;12.00;91.60;;;;;;10263099;28;20221;-85
2021/01/21 15:30:46;;;;;;;1.83;1.73;;;11.90;91.20;;;;;;10287676;28;20227;-83
2021/01/21 15:35:50;;;;;;;1.37;1.27;;;11.90;91.50;;;;;;10268335;28;20205;-84
2021/01/21 15:40:52;;;;;;;1.67;1.57;;;11.90;91.00;;;;;;10260847;28;20232;-86
2021/01/21 15:45:54;;;;;;;1.80;1.63;;;11.90;90.90;;;;;;10278937;28;20219;-86
2021/01/21 15:50:56;;;;;;;3.70;1.33;;;11.80;91.00;;;;;;10306181;28;20219;-83
2021/01/21 15:56:01;;;;;;;1.90;1.60;;;11.80;91.20;;;;;;10285778;28;20543;-85
2021/01/21 16:01:03;;;;;;;1.80;1.70;;;11.80;91.10;;;;;;10269691;28;20234;-83
2021/01/21 16:06:06;;;;;;;1.60;1.50;;;11.80;91.20;;;;;;10286537;28;20303;-85
2021/01/21 16:11:07;;;;;;;1.40;1.30;;;11.70;91.00;;;;;;10244873;28;20705;-84
2021/01/21 16:16:09;;;;;;;1.70;1.60;;;11.70;91.00;;;;;;10252674;28;20196;-86
2021/01/21 16:21:12;;;;;;;1.80;1.70;;;11.70;91.00;;;;;;10250413;28;20240;-83
2021/01/21 16:26:13;;;;;;;1.40;1.30;;;11.70;90.80;;;;;;10247194;28;20229;-83
2021/01/21 16:31:15;;;;;;;1.30;1.20;;;11.60;90.70;;;;;;10252275;28;20236;-87
2021/01/21 16:36:18;;;;;;;1.60;1.50;;;11.50;90.80;;;;;;10287480;28;20242;-85
2021/01/21 16:41:20;;;;;;;1.70;1.60;;;11.50;90.90;;;;;;10284434;28;20220;-84
2021/01/21 16:46:21;;;;;;;2.10;1.67;;;11.40;91.20;;;;;;10283642;28;20287;-84
2021/01/21 16:51:24;;;;;;;1.40;1.30;;;11.30;91.10;;;;;;10292099;28;20732;-83
2021/01/21 16:56:26;;;;;;;2.10;1.77;;;11.20;91.30;;;;;;10270881;28;20200;-85
2021/01/21 17:01:27;;;;;;;1.80;1.70;;;11.20;91.60;;;;;;10264325;28;20259;-83
2021/01/21 17:06:30;;;;;;;1.83;1.70;;;11.20;91.70;;;;;;10275679;28;20220;-83
2021/01/21 17:11:31;;;;;;;2.30;1.90;;;11.20;91.70;;;;;;10349903;23;20471;-80
2021/01/21 17:16:33;;;;;;;1.90;1.77;;;11.20;91.90;;;;;;10375709;28;20198;-80
2021/01/21 17:21:36;;;;;;;1.70;1.60;;;11.20;91.90;;;;;;10377509;28;20246;-80
2021/01/21 17:26:38;;;;;;;1.40;1.40;;;11.20;91.90;;;;;;10340523;28;20655;-80
2021/01/21 17:31:40;;;;;;;1.70;1.60;;;11.10;92.00;;;;;;10353682;28;20313;-80
2021/01/21 17:36:43;;;;;;;3.00;2.63;;;11.10;92.20;;;;;;10370156;28;20209;-79
2021/01/21 17:41:45;;;;;;;2.27;1.90;;;11.20;92.30;;;;;;10362213;28;20365;-80
2021/01/21 17:46:46;;;;;;;1.50;1.37;;;11.20;92.30;;;;;;10350443;28;20234;-80
2021/01/21 17:51:49;;;;;;;2.20;2.00;;;11.20;92.40;;;;;;10378812;28;20221;-80
2021/01/21 17:56:52;;;;;;;1.50;1.40;;;11.20;92.40;;;;;;10385078;28;20206;-80
2021/01/21 18:01:56;;;;;;;1.80;1.70;;;11.20;92.30;;;;;;10375157;28;20221;-80
2021/01/21 18:06:58;;;;;;;2.00;1.90;;;11.20;92.10;;;;;;10378175;28;20312;-80
2021/01/21 18:12:03;;;;;;;3.27;2.47;;;11.20;92.10;;;;;;10341116;28;20610;-80
2021/01/21 18:17:05;;;;;;;2.07;1.90;;;11.20;92.10;;;;;;10339888;28;20211;-80
2021/01/21 18:22:07;;;;;;;2.07;1.97;;;11.20;91.80;;;;;;10334340;28;20326;-80
2021/01/21 18:27:09;;;;;;;5.77;3.00;;;11.30;91.80;;;;;;10331899;28;20230;-80
2021/01/21 18:32:10;;;;;;;3.07;2.77;;;11.30;91.80;;;;;;10333710;28;20226;-80
2021/01/21 18:37:13;;;;;;;2.73;2.53;;;11.30;91.80;;;;;;10312182;28;20775;-80
2021/01/21 18:42:15;;;;;;;4.50;4.10;;;11.20;91.70;;;;;;10337484;28;20279;-80
2021/01/21 18:47:16;;;;;;;2.33;2.23;;;11.20;91.50;;;;;;10319519;28;20257;-81
2021/01/21 18:52:19;;;;;;;2.83;2.50;;;11.20;91.50;;;;;;10321567;28;20333;-81
2021/01/21 18:57:21;;;;;;;2.63;2.20;;;11.20;91.30;;;;;;10357745;28;20316;-81
2021/01/21 19:02:23;;;;;;;2.57;2.47;;;11.20;91.00;;;;;;10331396;28;20219;-80
2021/01/21 19:07:25;;;;;;;2.70;2.50;;;11.20;90.90;;;;;;10332245;28;20239;-81
2021/01/21 19:12:27;;;;;;;1.87;1.70;;;11.20;90.60;;;;;;10310118;28;20242;-81
2021/01/21 19:17:30;;;;;;;2.90;2.57;;;11.20;90.60;;;;;;10357165;28;20690;-81
2021/01/21 19:22:33;;;;;;;2.63;2.20;;;11.20;90.60;;;;;;10314255;28;20227;-80
2021/01/21 19:27:34;;;;;;;2.93;2.60;;;11.20;90.40;;;;;;10337201;28;20675;-80
2021/01/21 19:32:36;;;;;;;2.57;2.17;;;11.10;90.30;;;;;;10338861;28;20229;-80
2021/01/21 19:37:39;;;;;;;2.70;2.50;;;11.10;90.50;;;;;;10355006;28;20285;-80
2021/01/21 19:42:41;;;;;;;2.90;2.20;;;11.10;90.60;;;;;;10327591;28;20270;-80
2021/01/21 19:47:42;;;;;;;3.23;2.93;;;11.10;90.50;;;;;;10317366;28;20718;-80
2021/01/21 19:52:45;;;;;;;4.67;2.57;;;11.10;90.20;;;;;;10318649;28;20420;-80
2021/01/21 19:57:46;;;;;;;2.13;1.93;;;11.10;89.90;;;;;;10335608;28;20223;-80
2021/01/21 20:02:52;;;;;;;2.03;1.93;;;11.00;89.30;;;;;;10311240;28;20266;-81
2021/01/21 20:07:54;;;;;;;2.10;1.87;;;11.10;88.90;;;;;;10322448;28;20200;-81
2021/01/21 20:12:56;;;;;;;1.97;1.87;;;11.10;88.80;;;;;;10330040;28;20246;-81
2021/01/21 20:17:58;;;;;;;1.90;1.80;;;11.20;88.50;;;;;;10348190;28;20209;-81
2021/01/21 20:23:00;;;;;;;2.30;1.77;;;11.20;88.60;;;;;;10361003;28;20234;-81
2021/01/21 20:28:02;;;;;;;6.90;2.20;;;11.20;88.00;;;;;;10326684;28;20206;-81
2021/01/21 20:33:11;;;;;;;2.47;2.27;;;11.20;88.10;;;;;;10334417;28;20243;-80
2021/01/21 20:39:00;;;;;;;2.13;2.03;;;11.20;87.70;;;;;;10314070;28;20208;-80
2021/01/21 20:45:30;;;;;;;5.40;3.83;;;11.20;88.10;;;;;;10330647;28;20692;-80
2021/01/21 20:50:37;;;;;;;2.40;2.20;;;11.20;88.40;;;;;;10338122;28;20227;-80
2021/01/21 20:55:40;;;;;;;3.30;3.03;;;11.20;89.00;;;;;;10316986;28;20203;-80
2021/01/21 21:00:43;;;;;;;2.40;2.20;;;11.20;88.40;;;;;;10344469;28;20269;-80
2021/01/21 21:05:51;;;;;;;2.17;2.03;;;11.20;90.30;;;;;;10310761;28;20235;-79
2021/01/21 21:10:56;;;;;;;2.47;2.27;;;11.00;90.90;;;;;;10315279;28;20281;-80
2021/01/21 21:15:57;;;;;;;2.87;2.37;;;10.90;91.20;;;;;;10328789;28;20191;-80
2021/01/21 21:20:59;;;;;;;2.20;1.97;;;10.90;91.70;;;;;;10329567;28;20321;-80
2021/01/21 21:26:02;;;;;;;1.97;1.83;;;10.80;92.40;;;;;;10313289;28;20281;-80
2021/01/21 21:31:03;;;;;;;1.83;1.73;;;10.60;93.00;;;;;;10306468;28;20641;-80
2021/01/21 21:36:06;;;;;;;1.97;1.87;;;10.60;93.60;;;;;;10295169;28;20196;-80
2021/01/21 21:41:09;;;;;;;2.70;2.37;;;10.40;94.30;;;;;;10313635;28;20285;-80
2021/01/21 21:46:11;;;;;;;2.50;2.30;;;10.20;95.10;;;;;;10311368;28;20309;-80
2021/01/21 21:51:12;;;;;;;2.30;2.20;;;10.10;96.40;;;;;;10315356;28;20246;-80
2021/01/21 21:56:15;;;;;;;2.40;2.30;;;9.90;97.90;;;;;;10334108;28;20210;-80
2021/01/21 22:01:16;;;;;;;2.47;2.27;;;9.80;98.00;;;;;;10336633;28;20231;-80
2021/01/21 22:06:25;;;;;;;2.00;1.90;;;9.70;98.70;;;;;;10337423;28;20234;-80
2021/01/21 22:12:54;;;;;;;4.00;2.03;;;9.60;98.70;;;;;;10352901;28;20234;-80
2021/01/21 22:18:17;;;;;;;2.03;1.93;;;9.60;98.60;;;;;;10368995;28;20212;-80
2021/01/21 22:23:19;;;;;;;1.90;1.80;;;9.70;98.50;;;;;;10356968;28;20234;-80
2021/01/21 22:28:28;;;;;;;1.87;1.77;;;9.80;98.30;;;;;;10354232;28;20236;-80
2021/01/21 22:39:59;;;;;;;1.67;1.57;;;10.00;96.50;;;;;;10324918;28;20347;-80
2021/01/21 23:00:16;;;;;;;;;;;;;;;;;;;;;
2021/01/21 23:06:59;;;;;;;1.30;1.20;;;10.60;94.40;;;;;;10060251;29;20390;-80
2021/01/21 23:12:47;;;;;;;1.17;1.10;;;10.70;94.10;;;;;;10224226;23;20311;-82
2021/01/21 23:17:52;;;;;;;1.50;1.40;;;10.80;93.90;;;;;;10302771;28;20210;-84
2021/01/21 23:22:54;;;;;;;1.37;1.27;;;10.80;93.40;;;;;;10314249;28;20238;-84
2021/01/21 23:27:56;;;;;;;3.10;1.10;;;10.90;92.70;;;;;;10327588;28;20206;-83
2021/01/21 23:32:58;;;;;;;0.97;0.97;;;10.90;92.60;;;;;;10375203;28;20305;-84
2021/01/21 23:38:00;;;;;;;1.07;1.07;;;11.00;92.70;;;;;;10303979;28;20222;-84
2021/01/21 23:43:02;;;;;;;1.20;1.20;;;11.10;92.60;;;;;;10335111;28;20538;-83
2021/01/21 23:48:05;;;;;;;1.33;1.20;;;11.10;92.90;;;;;;10302190;28;20211;-84
2021/01/21 23:53:07;;;;;;;2.00;1.30;;;11.10;93.00;;;;;;10336367;28;20313;-84
2021/01/21 23:58:09;;;;;;;1.97;1.30;;;11.10;93.30;;;;;;10308338;28;20211;-84
